Strona główna
METAR-TAF:

METAR-TAF

Lotnisko :

Schaffen

Diest, Belgia

Szerokość geograficzna: 51-00N, Długość geograficzna: 005-04E, wysokość: 30 m

Aktualna obserwacja pogody

Raport powstał 25 minut temu, godzina 11:25 UTC
Wiatr 12 kt od południe
Temperatura 5°C
Wilgotność 81%
Ciśnienie 1024 hPa
Widzialność 10 km lub więcej

METAR: EBDT 101125Z AUTO 19012KT 9999 FEW120/// BKN210/// 05/02 Q1024 BLU

czas: 12:50 (11:50 UTC)


TAF: brakujący

Obserwacja i prognoza pogody dla ponad 4000 lotnisk (raport METAR i TAF).

Dostępne stacje oznaczono żółtymi i czerwonymi punktami na mapie.

Najedź kursorem aby zobaczyć nazwę stacji.

Kliknij aby zobaczyć obserwacje i prognozy pogody.

Aby zmienić mapę: kliknij na zielony przycisk z czarnym krzyżykiem, aby powiększyć; na zielony przycisk z myślnikiem, aby pomniejszyć; na zielone strzałki, aby przejść do map sąsiednich.


METAR-TAF: